createdAt,value
2023-01-26T00:01:21.816Z,95587.41
2023-01-26T00:03:49.637Z,95602.22
2023-01-26T00:06:18.706Z,95606.31
2023-01-26T00:08:50.598Z,95600.03
2023-01-26T00:11:26.972Z,95611.75
2023-01-26T00:13:55.233Z,95602.97
2023-01-26T00:16:22.000Z,95591.84
2023-01-26T00:18:48.978Z,95601.91
2023-01-26T00:21:18.331Z,95597.56
2023-01-26T00:23:45.495Z,95616.81
2023-01-26T00:26:18.242Z,95617.06
2023-01-26T00:28:45.184Z,95609.06
2023-01-26T00:31:14.690Z,95595.09
2023-01-26T00:33:41.827Z,95594.34
2023-01-26T00:36:11.651Z,95587.59
2023-01-26T00:38:40.405Z,95567.50
2023-01-26T00:41:08.517Z,95570.41
2023-01-26T00:43:35.408Z,95574.69
2023-01-26T00:46:02.334Z,95577.28
2023-01-26T00:48:29.128Z,95580.91
2023-01-26T00:50:57.189Z,95564.28
2023-01-26T00:53:23.981Z,95556.63
2023-01-26T00:55:56.048Z,95575.16
2023-01-26T00:58:23.052Z,95565.75
2023-01-26T01:00:49.779Z,95562.00
2023-01-26T01:03:16.700Z,95559.34
2023-01-26T01:05:47.250Z,95561.44
2023-01-26T01:08:14.278Z,95553.41
2023-01-26T01:10:41.023Z,95545.31
2023-01-26T01:13:07.757Z,95561.34
2023-01-26T01:15:34.659Z,95556.53
2023-01-26T01:18:01.523Z,95545.16
2023-01-26T01:20:30.138Z,95553.53
2023-01-26T01:22:57.128Z,95548.22
2023-01-26T01:25:24.121Z,95519.59
2023-01-26T01:27:51.044Z,95557.03
2023-01-26T01:30:18.000Z,95554.31
2023-01-26T01:32:45.050Z,95540.38
2023-01-26T01:35:12.045Z,95536.31
2023-01-26T01:37:38.857Z,95539.50
2023-01-26T01:40:06.285Z,95539.09
2023-01-26T01:42:33.846Z,95528.69
2023-01-26T01:45:26.679Z,95535.91
2023-01-26T01:47:56.982Z,95529.28
2023-01-26T01:50:25.196Z,95544.13
2023-01-26T01:52:54.077Z,95531.38
2023-01-26T01:55:20.945Z,95539.88
2023-01-26T01:57:53.702Z,95539.75
2023-01-26T02:00:23.632Z,95537.34
2023-01-26T02:03:12.720Z,95536.56
2023-01-26T02:05:48.851Z,95533.69
2023-01-26T02:08:19.065Z,95520.97
2023-01-26T02:10:49.500Z,95518.41
2023-01-26T02:13:18.745Z,95518.72
2023-01-26T02:15:46.456Z,95515.09
2023-01-26T02:18:13.374Z,95507.81
2023-01-26T02:20:53.277Z,95504.78
2023-01-26T02:23:49.363Z,95499.34
2023-01-26T02:26:19.731Z,95489.28
2023-01-26T02:28:47.801Z,95456.22
2023-01-26T02:31:16.805Z,95475.44
2023-01-26T02:33:44.302Z,95480.63
2023-01-26T02:36:40.591Z,95477.13
2023-01-26T02:39:13.254Z,95477.53
2023-01-26T02:41:59.219Z,95472.31
2023-01-26T02:44:27.385Z,95474.69
2023-01-26T02:46:54.233Z,95477.75
2023-01-26T02:49:39.708Z,95468.13
2023-01-26T02:52:07.759Z,95468.72
2023-01-26T02:54:54.209Z,95466.59
2023-01-26T02:57:21.098Z,95464.19
2023-01-26T02:59:47.878Z,95454.94
2023-01-26T03:02:14.926Z,95456.13
2023-01-26T03:04:42.661Z,95440.84
2023-01-26T03:07:09.838Z,95451.09
2023-01-26T03:09:36.889Z,95449.47
2023-01-26T03:12:04.008Z,95441.81
2023-01-26T03:14:31.357Z,95450.88
2023-01-26T03:16:58.279Z,95446.75
2023-01-26T03:19:43.605Z,95441.38
2023-01-26T03:22:30.591Z,95425.97
2023-01-26T03:25:17.342Z,95435.50
2023-01-26T03:27:48.360Z,95427.88
2023-01-26T03:30:19.351Z,95408.97
2023-01-26T03:32:48.118Z,95414.84
2023-01-26T03:35:22.646Z,95420.84
2023-01-26T03:37:54.761Z,95409.31
2023-01-26T03:40:58.306Z,95419.06
2023-01-26T03:43:43.580Z,95418.13
2023-01-26T03:46:29.032Z,95421.13
2023-01-26T03:49:14.392Z,95422.56
2023-01-26T03:51:59.684Z,95409.53
2023-01-26T03:54:45.019Z,95398.28
2023-01-26T03:57:12.513Z,95407.16
2023-01-26T03:59:39.393Z,95385.81
2023-01-26T04:02:31.270Z,95378.81
2023-01-26T04:05:17.723Z,95390.72
2023-01-26T04:08:07.036Z,95381.66
2023-01-26T04:10:33.976Z,95385.94
2023-01-26T04:13:22.112Z,95380.25
2023-01-26T04:16:13.116Z,95386.88
2023-01-26T04:18:59.541Z,95371.81
2023-01-26T04:21:30.674Z,95365.41
2023-01-26T04:24:00.464Z,95363.03
2023-01-26T04:26:34.996Z,95346.13
2023-01-26T04:29:05.932Z,95368.22
2023-01-26T04:31:32.889Z,95356.66
2023-01-26T04:34:01.108Z,95351.97
2023-01-26T04:36:29.526Z,95355.91
2023-01-26T04:38:56.500Z,95351.69
2023-01-26T04:41:23.318Z,95351.00
2023-01-26T04:44:02.242Z,95343.69
2023-01-26T04:46:29.587Z,95365.41
2023-01-26T04:48:56.504Z,95365.13
2023-01-26T04:51:24.490Z,95345.38
2023-01-26T04:53:51.680Z,95363.69
2023-01-26T04:56:19.792Z,95354.88
2023-01-26T04:58:46.699Z,95360.00
2023-01-26T05:01:13.871Z,95363.13
2023-01-26T05:03:40.763Z,95364.81
2023-01-26T05:06:08.591Z,95357.16
2023-01-26T05:08:37.065Z,95365.03
2023-01-26T05:11:05.024Z,95355.94
2023-01-26T05:13:44.068Z,95355.91
2023-01-26T05:16:25.064Z,95349.78
2023-01-26T05:19:15.278Z,95350.84
2023-01-26T05:22:17.352Z,95343.91
2023-01-26T05:25:04.441Z,95340.78
2023-01-26T05:27:41.042Z,95343.09
2023-01-26T05:30:09.101Z,95330.94
2023-01-26T05:32:37.137Z,95336.25
2023-01-26T05:35:05.825Z,95336.63
2023-01-26T05:37:34.035Z,95331.59
2023-01-26T05:40:01.173Z,95328.88
2023-01-26T05:42:28.549Z,95332.22
2023-01-26T05:44:58.157Z,95333.50
2023-01-26T05:47:25.113Z,95333.66
2023-01-26T05:49:52.099Z,95336.47
2023-01-26T05:52:24.516Z,95331.59
2023-01-26T05:54:52.604Z,95325.72
2023-01-26T05:57:19.642Z,95336.63
2023-01-26T05:59:54.710Z,95346.78
2023-01-26T06:02:22.349Z,95335.59
2023-01-26T06:04:49.707Z,95329.25
2023-01-26T06:07:16.514Z,95339.97
2023-01-26T06:10:04.450Z,95333.59
2023-01-26T06:13:06.801Z,95325.19
2023-01-26T06:15:47.970Z,95327.16
2023-01-26T06:18:14.874Z,95316.25
2023-01-26T06:20:48.323Z,95327.22
2023-01-26T06:23:16.198Z,95322.63
2023-01-26T06:25:44.746Z,95326.94
2023-01-26T06:28:11.607Z,95293.16
2023-01-26T06:30:38.501Z,95313.44
2023-01-26T06:33:10.625Z,95297.44
2023-01-26T06:35:38.293Z,95307.91
2023-01-26T06:38:10.307Z,95310.56
2023-01-26T06:40:37.251Z,95311.19
2023-01-26T06:43:04.245Z,95300.81
2023-01-26T06:45:32.525Z,95306.22
2023-01-26T06:48:00.725Z,95313.22
2023-01-26T06:50:33.330Z,95312.69
2023-01-26T06:53:04.439Z,95307.19
2023-01-26T06:55:49.350Z,95308.25
2023-01-26T06:58:33.970Z,95308.13
2023-01-26T07:01:06.983Z,95297.22
2023-01-26T07:03:33.876Z,95298.09
2023-01-26T07:06:00.593Z,95289.34
2023-01-26T07:08:27.704Z,95279.19
2023-01-26T07:10:54.645Z,95295.13
2023-01-26T07:13:21.767Z,95286.22
2023-01-26T07:15:48.484Z,95285.88
2023-01-26T07:18:15.391Z,95284.53
2023-01-26T07:20:42.077Z,95289.28
2023-01-26T07:23:08.719Z,95279.22
2023-01-26T07:25:35.778Z,95281.78
2023-01-26T07:28:02.628Z,95279.72
2023-01-26T07:30:29.576Z,95276.97
2023-01-26T07:32:59.680Z,95280.84
2023-01-26T07:35:26.608Z,95278.72
2023-01-26T07:37:53.298Z,95275.19
2023-01-26T07:40:20.035Z,95273.25
2023-01-26T07:42:47.206Z,95262.28
2023-01-26T07:45:39.913Z,95266.50
2023-01-26T07:48:06.769Z,95267.56
2023-01-26T07:50:33.533Z,95270.34
2023-01-26T07:53:00.826Z,95275.13
2023-01-26T07:55:27.742Z,95258.84
2023-01-26T07:57:54.613Z,95260.97
2023-01-26T08:00:21.593Z,95270.75
2023-01-26T08:02:51.618Z,95269.78
2023-01-26T08:05:18.520Z,95262.09
2023-01-26T08:07:45.384Z,95254.72
2023-01-26T08:10:13.828Z,95254.34
2023-01-26T08:12:41.345Z,95256.13
2023-01-26T08:15:08.730Z,95253.41
2023-01-26T08:17:36.154Z,95244.13
2023-01-26T08:20:03.691Z,95245.94
2023-01-26T08:22:30.531Z,95240.44
2023-01-26T08:24:57.483Z,95246.66
2023-01-26T08:27:24.299Z,95246.22
2023-01-26T08:29:51.559Z,95236.25
2023-01-26T08:32:18.271Z,95233.00
2023-01-26T08:34:45.198Z,95232.75
2023-01-26T08:37:11.927Z,95237.66
2023-01-26T08:39:39.016Z,95232.59
2023-01-26T08:42:05.771Z,95233.56
2023-01-26T08:44:32.734Z,95227.41
2023-01-26T08:46:59.524Z,95231.13
2023-01-26T08:49:26.474Z,95229.28
2023-01-26T08:51:53.163Z,95227.88
2023-01-26T08:54:20.015Z,95223.81
2023-01-26T08:56:46.767Z,95215.31
2023-01-26T08:59:13.596Z,95236.44
2023-01-26T09:01:40.342Z,95230.34
2023-01-26T09:04:07.407Z,95226.34
2023-01-26T09:06:34.240Z,95224.78
2023-01-26T09:09:01.146Z,95229.00
2023-01-26T09:11:28.348Z,95227.44
2023-01-26T09:13:56.726Z,95228.88
2023-01-26T09:16:24.256Z,95213.56
2023-01-26T09:18:53.199Z,95211.16
2023-01-26T09:21:20.357Z,95216.75
2023-01-26T09:23:47.203Z,95206.84
2023-01-26T09:26:14.048Z,95205.16
2023-01-26T09:28:40.931Z,95202.41
2023-01-26T09:31:10.818Z,95200.00
2023-01-26T09:33:37.818Z,95190.22
2023-01-26T09:36:10.631Z,95179.50
2023-01-26T09:38:38.828Z,95179.63
2023-01-26T09:41:08.139Z,95185.00
2023-01-26T09:43:47.977Z,95195.09
2023-01-26T09:46:22.705Z,95205.28
2023-01-26T09:48:57.848Z,95192.16
2023-01-26T09:51:33.843Z,95189.34
2023-01-26T09:54:19.323Z,95184.16
2023-01-26T09:56:46.231Z,95173.88
2023-01-26T09:59:47.264Z,95164.44
2023-01-26T10:02:29.486Z,95170.53
2023-01-26T10:05:01.343Z,95178.97
2023-01-26T10:07:28.593Z,95172.66
2023-01-26T10:09:56.480Z,95173.19
2023-01-26T10:12:28.279Z,95171.28
2023-01-26T10:15:18.785Z,95176.53
2023-01-26T10:17:47.399Z,95174.13
2023-01-26T10:20:35.323Z,95158.59
2023-01-26T10:23:16.819Z,95148.78
2023-01-26T10:25:46.884Z,95134.84
2023-01-26T10:28:19.955Z,95129.41
2023-01-26T10:30:48.718Z,95123.72
2023-01-26T10:33:20.694Z,95121.13
2023-01-26T10:35:48.074Z,95115.25
2023-01-26T10:38:33.331Z,95113.09
2023-01-26T10:41:02.269Z,95092.50
2023-01-26T10:43:29.905Z,95095.66
2023-01-26T10:45:56.647Z,95089.44
2023-01-26T10:48:27.218Z,95079.66
2023-01-26T10:50:54.398Z,95071.09
2023-01-26T10:53:29.897Z,95068.44
2023-01-26T10:56:14.909Z,95063.97
2023-01-26T10:58:41.953Z,95058.88
2023-01-26T11:01:12.415Z,95035.75
2023-01-26T11:03:39.808Z,95043.03
2023-01-26T11:06:17.845Z,95027.31
2023-01-26T11:08:44.803Z,95015.94
2023-01-26T11:11:27.318Z,95017.06
2023-01-26T11:14:16.398Z,95015.91
2023-01-26T11:16:54.650Z,95022.44
2023-01-26T11:20:07.419Z,95002.06
2023-01-26T11:22:54.316Z,94987.56
2023-01-26T11:25:31.731Z,94977.81
2023-01-26T11:28:26.365Z,94978.59
2023-01-26T11:31:16.636Z,94969.50
2023-01-26T11:34:01.912Z,94970.94
2023-01-26T11:36:40.724Z,94967.72
2023-01-26T11:39:23.524Z,94966.19
2023-01-26T11:42:11.924Z,94953.75
2023-01-26T11:44:51.223Z,94943.56
2023-01-26T11:47:42.410Z,94953.69
2023-01-26T11:50:44.469Z,94952.50
2023-01-26T11:53:42.957Z,94951.09
2023-01-26T11:56:44.451Z,94958.38
2023-01-26T11:59:37.033Z,94956.34
2023-01-26T12:02:27.580Z,94960.53
2023-01-26T12:05:01.020Z,94946.34
2023-01-26T12:07:32.195Z,94928.75
2023-01-26T12:10:02.512Z,94942.38
2023-01-26T12:12:45.954Z,94938.44
2023-01-26T12:15:37.094Z,94935.16
2023-01-26T12:18:09.994Z,94920.22
2023-01-26T12:21:09.121Z,94920.69
2023-01-26T12:23:45.696Z,94915.47
2023-01-26T12:26:17.200Z,94914.97
2023-01-26T12:28:50.883Z,94902.88
2023-01-26T12:31:33.431Z,94893.13
2023-01-26T12:34:00.294Z,94889.53
2023-01-26T12:36:59.452Z,94895.50
2023-01-26T12:39:45.719Z,94889.75
2023-01-26T12:42:46.878Z,94882.75
2023-01-26T12:45:29.111Z,94873.81
2023-01-26T12:48:16.189Z,94886.72
2023-01-26T12:50:48.828Z,94874.25
2023-01-26T12:53:34.374Z,94869.25
2023-01-26T12:56:13.279Z,94873.13
2023-01-26T12:58:44.525Z,94875.63
2023-01-26T13:01:17.406Z,94863.56
2023-01-26T13:03:51.935Z,94863.84
2023-01-26T13:06:21.579Z,94848.41
2023-01-26T13:09:00.654Z,94866.88
2023-01-26T13:11:39.483Z,94879.38
2023-01-26T13:14:42.034Z,94874.94
2023-01-26T13:17:17.785Z,94871.13
2023-01-26T13:19:44.609Z,94878.72
2023-01-26T13:22:26.216Z,94875.00
2023-01-26T13:24:56.205Z,94864.22
2023-01-26T13:27:37.496Z,94856.41
2023-01-26T13:30:24.629Z,94861.34
2023-01-26T13:32:51.276Z,94855.19
2023-01-26T13:35:22.120Z,94845.25
2023-01-26T13:38:27.647Z,94849.31
2023-01-26T13:40:56.006Z,94841.91
2023-01-26T13:43:46.444Z,94842.06
2023-01-26T13:46:16.246Z,94839.84
2023-01-26T13:48:48.564Z,94843.13
2023-01-26T13:51:22.285Z,94837.44
2023-01-26T13:53:56.663Z,94836.34
2023-01-26T13:56:39.067Z,94835.72
2023-01-26T13:59:12.894Z,94834.28
2023-01-26T14:01:49.194Z,94827.63
2023-01-26T14:04:30.866Z,94815.88
2023-01-26T14:07:10.025Z,94809.66
2023-01-26T14:09:47.084Z,94813.44
2023-01-26T14:12:26.723Z,94812.97
2023-01-26T14:14:57.401Z,94805.88
2023-01-26T14:17:36.786Z,94806.31
2023-01-26T14:20:39.509Z,94802.44
2023-01-26T14:23:18.552Z,94809.22
2023-01-26T14:26:00.636Z,94804.09
2023-01-26T14:28:34.732Z,94799.03
2023-01-26T14:31:09.992Z,94802.06
2023-01-26T14:33:37.590Z,94788.63
2023-01-26T14:36:06.064Z,94789.88
2023-01-26T14:38:50.890Z,94789.00
2023-01-26T14:41:23.463Z,94789.31
2023-01-26T14:43:58.537Z,94790.56
2023-01-26T14:46:46.516Z,94786.22
2023-01-26T14:49:19.377Z,94787.34
2023-01-26T14:51:53.429Z,94786.44
2023-01-26T14:54:28.356Z,94785.03
2023-01-26T14:56:56.265Z,94785.88
2023-01-26T14:59:28.654Z,94788.38
2023-01-26T15:02:15.460Z,94790.41
2023-01-26T15:04:47.692Z,94786.84
2023-01-26T15:07:42.327Z,94787.66
2023-01-26T15:10:43.266Z,94780.44
2023-01-26T15:13:10.056Z,94777.66
2023-01-26T15:16:02.657Z,94776.91
2023-01-26T15:18:34.216Z,94776.34
2023-01-26T15:21:20.818Z,94769.13
2023-01-26T15:23:52.751Z,94762.44
2023-01-26T15:26:34.078Z,94752.50
2023-01-26T15:29:05.626Z,94761.34
2023-01-26T15:31:35.400Z,94751.41
2023-01-26T15:34:02.891Z,94747.19
2023-01-26T15:36:47.481Z,94748.56
2023-01-26T15:39:16.820Z,94755.78
2023-01-26T15:41:47.154Z,94746.63
2023-01-26T15:44:16.592Z,94731.16
2023-01-26T15:46:44.673Z,94725.06
2023-01-26T15:49:19.919Z,94727.28
2023-01-26T15:51:46.715Z,94721.44
2023-01-26T15:54:13.490Z,94725.63
2023-01-26T15:56:40.283Z,94717.59
2023-01-26T15:59:07.243Z,94725.97
2023-01-26T16:01:34.051Z,94712.06
2023-01-26T16:04:00.981Z,94701.34
2023-01-26T16:06:30.310Z,94709.06
2023-01-26T16:08:57.402Z,94707.03
2023-01-26T16:11:30.453Z,94701.66
2023-01-26T16:14:03.577Z,94712.38
2023-01-26T16:16:32.665Z,94701.13
2023-01-26T16:18:59.730Z,94692.75
2023-01-26T16:21:31.579Z,94710.00
2023-01-26T16:23:59.421Z,94711.44
2023-01-26T16:26:27.830Z,94708.28
2023-01-26T16:28:54.912Z,94704.00
2023-01-26T16:31:24.691Z,94707.38
2023-01-26T16:33:52.174Z,94699.69
2023-01-26T16:36:20.560Z,94697.91
2023-01-26T16:38:48.130Z,94709.88
2023-01-26T16:41:32.528Z,94695.78
2023-01-26T16:44:01.668Z,94704.09
2023-01-26T16:46:29.664Z,94701.44
2023-01-26T16:48:56.966Z,94711.53
2023-01-26T16:51:29.942Z,94700.84
2023-01-26T16:53:57.427Z,94698.19
2023-01-26T16:56:25.281Z,94690.44
2023-01-26T16:58:52.114Z,94696.31
2023-01-26T17:01:23.571Z,94693.91
2023-01-26T17:03:51.768Z,94691.56
2023-01-26T17:06:19.514Z,94683.09
2023-01-26T17:08:47.512Z,94688.56
2023-01-26T17:11:27.594Z,94682.88
2023-01-26T17:13:56.252Z,94674.63
2023-01-26T17:16:25.969Z,94673.25
2023-01-26T17:18:52.785Z,94668.97
2023-01-26T17:21:20.571Z,94667.09
2023-01-26T17:23:51.868Z,94666.00
2023-01-26T17:26:20.324Z,94663.47
2023-01-26T17:28:49.171Z,94662.22
2023-01-26T17:31:18.332Z,94660.78
2023-01-26T17:33:48.049Z,94661.66
2023-01-26T17:36:16.292Z,94654.25
2023-01-26T17:38:43.317Z,94658.56
2023-01-26T17:41:10.279Z,94658.44
2023-01-26T17:43:37.077Z,94654.97
2023-01-26T17:46:08.708Z,94650.13
2023-01-26T17:48:37.590Z,94641.47
2023-01-26T17:51:12.605Z,94647.16
2023-01-26T17:53:41.488Z,94636.97
2023-01-26T17:56:09.812Z,94631.16
2023-01-26T17:58:37.373Z,94631.03
2023-01-26T18:01:06.445Z,94626.69
2023-01-26T18:03:33.953Z,94630.00
2023-01-26T18:06:00.711Z,94629.22
2023-01-26T18:08:27.575Z,94617.19
2023-01-26T18:11:02.100Z,94616.91
2023-01-26T18:13:30.478Z,94605.66
2023-01-26T18:15:57.731Z,94595.31
2023-01-26T18:18:26.023Z,94593.72
2023-01-26T18:20:53.095Z,94587.22
2023-01-26T18:23:21.585Z,94579.91
2023-01-26T18:25:48.776Z,94591.78
2023-01-26T18:28:16.356Z,94594.31
2023-01-26T18:30:43.289Z,94586.63
2023-01-26T18:33:10.308Z,94586.88
2023-01-26T18:35:37.024Z,94575.34
2023-01-26T18:38:03.840Z,94588.31
2023-01-26T18:40:31.094Z,94578.38
2023-01-26T18:42:58.139Z,94570.03
2023-01-26T18:45:25.022Z,94570.78
2023-01-26T18:47:51.921Z,94574.34
2023-01-26T18:50:18.882Z,94567.34
2023-01-26T18:52:45.750Z,94571.91
2023-01-26T18:55:13.267Z,94560.88
2023-01-26T18:57:40.238Z,94559.22
2023-01-26T19:00:08.744Z,94552.69
2023-01-26T19:02:38.762Z,94551.47
2023-01-26T19:05:09.525Z,94540.09
2023-01-26T19:07:36.445Z,94537.72
2023-01-26T19:10:05.040Z,94526.50
2023-01-26T19:12:32.342Z,94536.38
2023-01-26T19:15:00.103Z,94515.22
2023-01-26T19:17:29.213Z,94525.34
2023-01-26T19:19:55.986Z,94514.63
2023-01-26T19:22:23.721Z,94511.19
2023-01-26T19:24:50.446Z,94506.38
2023-01-26T19:27:17.186Z,94519.06
2023-01-26T19:29:43.928Z,94514.19
2023-01-26T19:32:10.762Z,94498.56
2023-01-26T19:34:37.631Z,94505.69
2023-01-26T19:37:05.026Z,94497.91
2023-01-26T19:39:31.719Z,94499.25
2023-01-26T19:41:58.624Z,94500.47
2023-01-26T19:44:25.432Z,94496.78
2023-01-26T19:46:53.592Z,94500.97
2023-01-26T19:49:21.432Z,94476.13
2023-01-26T19:51:48.924Z,94507.69
2023-01-26T19:54:16.012Z,94497.75
2023-01-26T19:56:42.840Z,94509.47
2023-01-26T19:59:11.823Z,94497.22
2023-01-26T20:01:39.062Z,94488.00
2023-01-26T20:04:09.477Z,94492.53
2023-01-26T20:06:37.265Z,94490.16
2023-01-26T20:09:05.541Z,94500.72
2023-01-26T20:11:33.996Z,94495.00
2023-01-26T20:14:11.541Z,94477.13
2023-01-26T20:16:39.871Z,94481.03
2023-01-26T20:19:06.690Z,94481.91
2023-01-26T20:21:33.709Z,94484.72
2023-01-26T20:24:05.731Z,94460.97
2023-01-26T20:26:34.440Z,94470.44
2023-01-26T20:29:01.850Z,94460.50
2023-01-26T20:31:28.908Z,94474.19
2023-01-26T20:33:56.006Z,94455.47
2023-01-26T20:36:25.528Z,94426.41
2023-01-26T20:38:52.621Z,94431.91
2023-01-26T20:41:26.045Z,94428.91
2023-01-26T20:44:00.211Z,94424.25
2023-01-26T20:46:46.241Z,94421.81
2023-01-26T20:49:15.746Z,94427.47
2023-01-26T20:51:45.341Z,94431.06
2023-01-26T20:54:14.795Z,94439.41
2023-01-26T20:56:42.976Z,94437.44
2023-01-26T20:59:10.806Z,94438.63
2023-01-26T21:01:37.809Z,94427.97
2023-01-26T21:04:05.544Z,94428.22
2023-01-26T21:06:32.550Z,94426.59
2023-01-26T21:09:00.170Z,94426.59
2023-01-26T21:11:30.812Z,94416.19
2023-01-26T21:14:00.620Z,94417.34
2023-01-26T21:16:27.985Z,94420.09
2023-01-26T21:18:55.467Z,94419.09
2023-01-26T21:21:22.898Z,94427.63
2023-01-26T21:23:50.721Z,94420.50
2023-01-26T21:26:22.363Z,94416.84
2023-01-26T21:28:54.985Z,94412.66
2023-01-26T21:31:23.688Z,94396.75
2023-01-26T21:33:50.951Z,94399.88
2023-01-26T21:36:20.671Z,94409.81
2023-01-26T21:38:50.895Z,94416.72
2023-01-26T21:41:44.972Z,94417.81
2023-01-26T21:44:17.435Z,94410.78
2023-01-26T21:46:45.487Z,94410.19
2023-01-26T21:49:13.463Z,94405.59
2023-01-26T21:51:59.276Z,94406.78
2023-01-26T21:54:26.725Z,94396.31
2023-01-26T21:56:53.482Z,94397.34
2023-01-26T21:59:20.310Z,94382.41
2023-01-26T22:01:50.175Z,94407.59
2023-01-26T22:04:20.002Z,94407.69
2023-01-26T22:06:47.088Z,94398.94
2023-01-26T22:09:15.927Z,94403.22
2023-01-26T22:11:43.130Z,94399.41
2023-01-26T22:14:18.570Z,94403.69
2023-01-26T22:16:45.592Z,94396.38
2023-01-26T22:19:13.000Z,94383.47
2023-01-26T22:21:40.279Z,94381.81
2023-01-26T22:24:10.573Z,94382.31
2023-01-26T22:26:38.916Z,94361.56
2023-01-26T22:29:06.178Z,94373.19
2023-01-26T22:31:33.754Z,94368.78
2023-01-26T22:34:01.373Z,94363.59
2023-01-26T22:36:29.267Z,94357.88
2023-01-26T22:38:56.532Z,94377.66
2023-01-26T22:41:26.148Z,94358.97
2023-01-26T22:43:56.466Z,94353.75
2023-01-26T22:46:24.612Z,94342.25
2023-01-26T22:48:52.071Z,94347.69
2023-01-26T22:51:21.742Z,94347.19
2023-01-26T22:53:50.747Z,94352.88
2023-01-26T22:56:18.740Z,94350.31
2023-01-26T22:58:57.642Z,94346.72
2023-01-26T23:01:28.198Z,94346.59
2023-01-26T23:03:55.565Z,94345.50
2023-01-26T23:06:23.128Z,94331.19
2023-01-26T23:08:50.652Z,94322.69
2023-01-26T23:11:20.636Z,94329.28
2023-01-26T23:13:49.647Z,94324.19
2023-01-26T23:16:16.815Z,94329.84
2023-01-26T23:18:44.060Z,94312.69
2023-01-26T23:21:11.415Z,94333.78
2023-01-26T23:23:39.691Z,94324.75
2023-01-26T23:26:07.361Z,94316.13
2023-01-26T23:28:37.097Z,94312.84
2023-01-26T23:31:05.115Z,94316.59
2023-01-26T23:33:34.105Z,94298.63
2023-01-26T23:36:01.585Z,94313.38
2023-01-26T23:38:29.691Z,94292.47
2023-01-26T23:40:57.519Z,94296.91
2023-01-26T23:43:24.464Z,94292.63
2023-01-26T23:45:51.810Z,94283.47
2023-01-26T23:48:20.124Z,94278.94
2023-01-26T23:50:47.343Z,94283.53
2023-01-26T23:53:14.648Z,94286.47
2023-01-26T23:55:43.150Z,94272.41
2023-01-26T23:58:11.354Z,94287.88
